sensor_id;sensor_type;location;lat;lon;timestamp;temperature;humidity
36548;DHT22;22551;52.206;4.856;2023-02-28T00:01:56;3.30;99.90
36548;DHT22;22551;52.206;4.856;2023-02-28T00:07:00;3.30;99.90
36548;DHT22;22551;52.206;4.856;2023-02-28T00:12:02;3.30;99.90
36548;DHT22;22551;52.206;4.856;2023-02-28T00:17:10;3.30;99.90
36548;DHT22;22551;52.206;4.856;2023-02-28T00:22:14;3.40;99.90
36548;DHT22;22551;52.206;4.856;2023-02-28T00:27:16;3.40;99.90
36548;DHT22;22551;52.206;4.856;2023-02-28T00:32:18;3.40;99.90
36548;DHT22;22551;52.206;4.856;2023-02-28T00:37:22;3.40;99.90
36548;DHT22;22551;52.206;4.856;2023-02-28T00:42:24;3.40;99.90
36548;DHT22;22551;52.206;4.856;2023-02-28T00:47:27;3.50;99.90
36548;DHT22;22551;52.206;4.856;2023-02-28T00:52:30;3.50;99.90
36548;DHT22;22551;52.206;4.856;2023-02-28T00:57:33;3.50;99.90
36548;DHT22;22551;52.206;4.856;2023-02-28T01:02:35;3.50;99.90
36548;DHT22;22551;52.206;4.856;2023-02-28T01:07:38;3.50;99.90
36548;DHT22;22551;52.206;4.856;2023-02-28T01:12:41;3.50;99.90
36548;DHT22;22551;52.206;4.856;2023-02-28T01:17:43;3.60;99.90
36548;DHT22;22551;52.206;4.856;2023-02-28T01:22:47;3.60;99.90
36548;DHT22;22551;52.206;4.856;2023-02-28T01:27:49;3.60;99.90
36548;DHT22;22551;52.206;4.856;2023-02-28T01:32:51;3.60;99.90
36548;DHT22;22551;52.206;4.856;2023-02-28T01:37:55;3.60;99.90
36548;DHT22;22551;52.206;4.856;2023-02-28T01:42:57;3.70;99.90
36548;DHT22;22551;52.206;4.856;2023-02-28T01:48:03;3.60;99.90
36548;DHT22;22551;52.206;4.856;2023-02-28T01:53:15;3.70;99.90
36548;DHT22;22551;52.206;4.856;2023-02-28T01:58:20;3.60;99.90
36548;DHT22;22551;52.206;4.856;2023-02-28T02:03:22;3.60;99.90
36548;DHT22;22551;52.206;4.856;2023-02-28T02:14:43;3.60;99.90
36548;DHT22;22551;52.206;4.856;2023-02-28T02:20:44;3.70;99.90
36548;DHT22;22551;52.206;4.856;2023-02-28T02:25:54;3.70;99.90
36548;DHT22;22551;52.206;4.856;2023-02-28T02:31:28;3.70;99.90
36548;DHT22;22551;52.206;4.856;2023-02-28T02:36:45;3.70;99.90
36548;DHT22;22551;52.206;4.856;2023-02-28T02:41:53;3.70;99.90
36548;DHT22;22551;52.206;4.856;2023-02-28T02:47:01;3.70;99.90
36548;DHT22;22551;52.206;4.856;2023-02-28T02:52:11;3.70;99.90
36548;DHT22;22551;52.206;4.856;2023-02-28T02:57:17;3.70;99.90
36548;DHT22;22551;52.206;4.856;2023-02-28T03:02:23;3.80;99.90
36548;DHT22;22551;52.206;4.856;2023-02-28T03:07:28;3.80;99.90
36548;DHT22;22551;52.206;4.856;2023-02-28T03:12:40;3.70;99.90
36548;DHT22;22551;52.206;4.856;2023-02-28T03:17:54;3.70;99.90
36548;DHT22;22551;52.206;4.856;2023-02-28T03:23:13;3.70;99.90
36548;DHT22;22551;52.206;4.856;2023-02-28T03:28:26;3.70;99.90
36548;DHT22;22551;52.206;4.856;2023-02-28T03:33:36;3.80;99.90
36548;DHT22;22551;52.206;4.856;2023-02-28T03:38:45;3.80;99.90
36548;DHT22;22551;52.206;4.856;2023-02-28T03:43:52;3.80;99.90
36548;DHT22;22551;52.206;4.856;2023-02-28T03:49:00;3.80;99.90
36548;DHT22;22551;52.206;4.856;2023-02-28T03:54:10;3.80;99.90
36548;DHT22;22551;52.206;4.856;2023-02-28T03:59:17;3.80;99.90
36548;DHT22;22551;52.206;4.856;2023-02-28T04:04:21;3.80;99.90
36548;DHT22;22551;52.206;4.856;2023-02-28T04:09:25;3.90;99.90
36548;DHT22;22551;52.206;4.856;2023-02-28T04:14:28;3.90;99.90
36548;DHT22;22551;52.206;4.856;2023-02-28T04:19:30;3.80;99.90
36548;DHT22;22551;52.206;4.856;2023-02-28T04:24:34;3.80;99.90
36548;DHT22;22551;52.206;4.856;2023-02-28T04:29:37;3.80;99.90
36548;DHT22;22551;52.206;4.856;2023-02-28T04:34:39;3.90;99.90
36548;DHT22;22551;52.206;4.856;2023-02-28T04:39:43;3.90;99.90
36548;DHT22;22551;52.206;4.856;2023-02-28T04:44:46;3.90;99.90
36548;DHT22;22551;52.206;4.856;2023-02-28T04:49:48;3.90;99.90
36548;DHT22;22551;52.206;4.856;2023-02-28T04:54:52;3.90;99.90
36548;DHT22;22551;52.206;4.856;2023-02-28T04:59:54;3.90;99.90
36548;DHT22;22551;52.206;4.856;2023-02-28T05:04:56;3.90;99.90
36548;DHT22;22551;52.206;4.856;2023-02-28T05:10:00;3.90;99.90
36548;DHT22;22551;52.206;4.856;2023-02-28T05:15:03;3.90;99.90
36548;DHT22;22551;52.206;4.856;2023-02-28T05:20:06;3.80;99.90
36548;DHT22;22551;52.206;4.856;2023-02-28T05:25:15;3.80;99.90
36548;DHT22;22551;52.206;4.856;2023-02-28T05:30:19;3.70;99.90
36548;DHT22;22551;52.206;4.856;2023-02-28T05:35:22;3.70;99.90
36548;DHT22;22551;52.206;4.856;2023-02-28T05:40:25;3.60;99.90
36548;DHT22;22551;52.206;4.856;2023-02-28T05:45:28;3.50;99.90
36548;DHT22;22551;52.206;4.856;2023-02-28T05:50:31;3.50;99.90
36548;DHT22;22551;52.206;4.856;2023-02-28T05:55:34;3.50;99.90
36548;DHT22;22551;52.206;4.856;2023-02-28T06:00:38;3.50;99.90
36548;DHT22;22551;52.206;4.856;2023-02-28T06:05:40;3.40;99.90
36548;DHT22;22551;52.206;4.856;2023-02-28T06:10:44;3.20;99.90
36548;DHT22;22551;52.206;4.856;2023-02-28T06:15:46;3.10;99.90
36548;DHT22;22551;52.206;4.856;2023-02-28T06:20:52;3.00;99.90
36548;DHT22;22551;52.206;4.856;2023-02-28T06:25:56;3.00;99.90
36548;DHT22;22551;52.206;4.856;2023-02-28T06:30:59;2.90;99.90
36548;DHT22;22551;52.206;4.856;2023-02-28T06:36:03;3.00;99.90
36548;DHT22;22551;52.206;4.856;2023-02-28T06:41:07;2.90;99.90
36548;DHT22;22551;52.206;4.856;2023-02-28T06:46:12;2.80;99.90
36548;DHT22;22551;52.206;4.856;2023-02-28T06:51:17;2.70;99.90
36548;DHT22;22551;52.206;4.856;2023-02-28T06:56:22;2.70;99.90
36548;DHT22;22551;52.206;4.856;2023-02-28T07:01:24;2.50;99.90
36548;DHT22;22551;52.206;4.856;2023-02-28T07:06:28;2.40;99.90
36548;DHT22;22551;52.206;4.856;2023-02-28T07:11:32;2.20;99.90
36548;DHT22;22551;52.206;4.856;2023-02-28T07:16:36;2.20;99.90
36548;DHT22;22551;52.206;4.856;2023-02-28T07:21:38;2.20;99.90
36548;DHT22;22551;52.206;4.856;2023-02-28T07:26:41;2.10;99.90
36548;DHT22;22551;52.206;4.856;2023-02-28T07:31:44;2.00;99.90
36548;DHT22;22551;52.206;4.856;2023-02-28T07:36:47;1.90;99.90
36548;DHT22;22551;52.206;4.856;2023-02-28T07:41:50;2.00;99.90
36548;DHT22;22551;52.206;4.856;2023-02-28T07:46:52;1.90;99.90
36548;DHT22;22551;52.206;4.856;2023-02-28T07:51:55;1.80;99.90
36548;DHT22;22551;52.206;4.856;2023-02-28T07:56:58;1.80;99.90
36548;DHT22;22551;52.206;4.856;2023-02-28T08:02:01;1.70;99.90
36548;DHT22;22551;52.206;4.856;2023-02-28T08:07:03;1.80;99.90
36548;DHT22;22551;52.206;4.856;2023-02-28T08:12:07;1.90;99.90
36548;DHT22;22551;52.206;4.856;2023-02-28T08:17:10;1.90;99.90
36548;DHT22;22551;52.206;4.856;2023-02-28T08:22:12;1.90;99.90
36548;DHT22;22551;52.206;4.856;2023-02-28T08:27:16;1.90;99.90
36548;DHT22;22551;52.206;4.856;2023-02-28T08:32:19;1.90;99.90
36548;DHT22;22551;52.206;4.856;2023-02-28T08:37:21;2.10;99.90
36548;DHT22;22551;52.206;4.856;2023-02-28T08:42:25;1.90;99.90
36548;DHT22;22551;52.206;4.856;2023-02-28T08:47:27;1.80;99.90
36548;DHT22;22551;52.206;4.856;2023-02-28T08:52:29;2.00;99.90
36548;DHT22;22551;52.206;4.856;2023-02-28T08:57:33;1.80;99.90
36548;DHT22;22551;52.206;4.856;2023-02-28T09:02:36;1.70;99.90
36548;DHT22;22551;52.206;4.856;2023-02-28T09:07:38;1.80;99.90
36548;DHT22;22551;52.206;4.856;2023-02-28T09:12:42;1.80;99.90
36548;DHT22;22551;52.206;4.856;2023-02-28T09:17:46;1.80;99.90
36548;DHT22;22551;52.206;4.856;2023-02-28T09:22:48;1.90;99.90
36548;DHT22;22551;52.206;4.856;2023-02-28T09:27:52;2.20;99.90
36548;DHT22;22551;52.206;4.856;2023-02-28T09:32:54;2.40;99.90
36548;DHT22;22551;52.206;4.856;2023-02-28T09:37:56;2.60;99.90
36548;DHT22;22551;52.206;4.856;2023-02-28T09:43:01;2.70;99.90
36548;DHT22;22551;52.206;4.856;2023-02-28T09:48:09;2.90;99.90
36548;DHT22;22551;52.206;4.856;2023-02-28T09:53:18;2.80;99.90
36548;DHT22;22551;52.206;4.856;2023-02-28T09:58:30;3.00;99.90
36548;DHT22;22551;52.206;4.856;2023-02-28T10:03:39;3.00;99.90
36548;DHT22;22551;52.206;4.856;2023-02-28T10:08:47;3.40;99.90
36548;DHT22;22551;52.206;4.856;2023-02-28T10:13:59;3.40;99.90
36548;DHT22;22551;52.206;4.856;2023-02-28T10:19:13;3.40;99.90
36548;DHT22;22551;52.206;4.856;2023-02-28T10:24:21;3.70;99.90
36548;DHT22;22551;52.206;4.856;2023-02-28T10:29:27;3.80;99.90
36548;DHT22;22551;52.206;4.856;2023-02-28T10:34:30;3.90;99.90
36548;DHT22;22551;52.206;4.856;2023-02-28T10:39:40;4.10;99.90
36548;DHT22;22551;52.206;4.856;2023-02-28T10:44:45;4.40;99.90
36548;DHT22;22551;52.206;4.856;2023-02-28T10:49:48;4.60;99.90
36548;DHT22;22551;52.206;4.856;2023-02-28T10:55:16;4.80;99.90
36548;DHT22;22551;52.206;4.856;2023-02-28T11:00:24;5.10;99.90
36548;DHT22;22551;52.206;4.856;2023-02-28T11:05:29;4.80;99.90
36548;DHT22;22551;52.206;4.856;2023-02-28T11:10:33;5.20;99.90
36548;DHT22;22551;52.206;4.856;2023-02-28T11:15:36;5.20;99.90
36548;DHT22;22551;52.206;4.856;2023-02-28T11:20:38;5.50;99.90
36548;DHT22;22551;52.206;4.856;2023-02-28T11:25:48;5.60;99.90
36548;DHT22;22551;52.206;4.856;2023-02-28T11:31:05;5.60;99.90
36548;DHT22;22551;52.206;4.856;2023-02-28T11:36:19;5.50;99.90
36548;DHT22;22551;52.206;4.856;2023-02-28T11:41:43;5.70;99.90
36548;DHT22;22551;52.206;4.856;2023-02-28T11:46:58;5.40;99.90
36548;DHT22;22551;52.206;4.856;2023-02-28T11:52:12;5.70;99.90
36548;DHT22;22551;52.206;4.856;2023-02-28T11:57:37;6.20;99.90
36548;DHT22;22551;52.206;4.856;2023-02-28T12:03:07;6.70;99.90
36548;DHT22;22551;52.206;4.856;2023-02-28T12:08:26;6.80;99.90
36548;DHT22;22551;52.206;4.856;2023-02-28T12:14:03;7.10;99.90
36548;DHT22;22551;52.206;4.856;2023-02-28T12:19:20;7.10;99.90
36548;DHT22;22551;52.206;4.856;2023-02-28T12:30:12;6.60;99.90
36548;DHT22;22551;52.206;4.856;2023-02-28T12:35:21;6.50;99.90
36548;DHT22;22551;52.206;4.856;2023-02-28T12:40:27;7.00;99.90
36548;DHT22;22551;52.206;4.856;2023-02-28T12:45:45;6.90;99.90
36548;DHT22;22551;52.206;4.856;2023-02-28T12:50:50;7.00;99.90
36548;DHT22;22551;52.206;4.856;2023-02-28T12:56:00;7.40;99.90
36548;DHT22;22551;52.206;4.856;2023-02-28T13:01:36;7.50;99.90
36548;DHT22;22551;52.206;4.856;2023-02-28T13:07:00;7.20;99.90
36548;DHT22;22551;52.206;4.856;2023-02-28T13:12:14;6.90;99.90
36548;DHT22;22551;52.206;4.856;2023-02-28T13:17:20;7.20;99.90
36548;DHT22;22551;52.206;4.856;2023-02-28T13:22:38;7.60;99.90
36548;DHT22;22551;52.206;4.856;2023-02-28T13:27:41;7.70;99.90
36548;DHT22;22551;52.206;4.856;2023-02-28T13:32:45;7.70;99.90
36548;DHT22;22551;52.206;4.856;2023-02-28T13:37:48;7.90;99.90
36548;DHT22;22551;52.206;4.856;2023-02-28T13:42:52;8.10;99.90
36548;DHT22;22551;52.206;4.856;2023-02-28T13:47:59;7.80;99.90
36548;DHT22;22551;52.206;4.856;2023-02-28T13:58:55;7.80;99.90
36548;DHT22;22551;52.206;4.856;2023-02-28T14:04:46;7.90;99.90
36548;DHT22;22551;52.206;4.856;2023-02-28T14:09:58;7.50;99.90
36548;DHT22;22551;52.206;4.856;2023-02-28T14:15:27;7.70;99.90
36548;DHT22;22551;52.206;4.856;2023-02-28T14:20:52;7.70;99.90
36548;DHT22;22551;52.206;4.856;2023-02-28T14:26:02;7.40;99.90
36548;DHT22;22551;52.206;4.856;2023-02-28T14:31:13;7.30;99.90
36548;DHT22;22551;52.206;4.856;2023-02-28T14:36:22;7.40;99.90
36548;DHT22;22551;52.206;4.856;2023-02-28T14:41:30;6.90;99.90
36548;DHT22;22551;52.206;4.856;2023-02-28T14:46:38;6.90;99.90
36548;DHT22;22551;52.206;4.856;2023-02-28T14:51:44;6.80;99.90
36548;DHT22;22551;52.206;4.856;2023-02-28T14:56:49;6.90;99.90
36548;DHT22;22551;52.206;4.856;2023-02-28T15:01:52;6.70;99.90
36548;DHT22;22551;52.206;4.856;2023-02-28T15:07:13;6.80;99.90
36548;DHT22;22551;52.206;4.856;2023-02-28T15:12:16;6.40;99.90
36548;DHT22;22551;52.206;4.856;2023-02-28T15:17:24;6.40;99.90
36548;DHT22;22551;52.206;4.856;2023-02-28T15:22:35;6.40;99.90
36548;DHT22;22551;52.206;4.856;2023-02-28T15:27:44;6.50;99.90
36548;DHT22;22551;52.206;4.856;2023-02-28T15:33:04;6.40;99.90
36548;DHT22;22551;52.206;4.856;2023-02-28T15:38:17;6.20;99.90
36548;DHT22;22551;52.206;4.856;2023-02-28T15:43:26;6.10;99.90
36548;DHT22;22551;52.206;4.856;2023-02-28T15:48:30;6.00;99.90
36548;DHT22;22551;52.206;4.856;2023-02-28T15:53:37;6.10;99.90
36548;DHT22;22551;52.206;4.856;2023-02-28T15:58:42;6.00;99.90
36548;DHT22;22551;52.206;4.856;2023-02-28T16:03:47;6.00;99.90
36548;DHT22;22551;52.206;4.856;2023-02-28T16:08:52;5.80;99.90
36548;DHT22;22551;52.206;4.856;2023-02-28T16:13:54;5.80;99.90
36548;DHT22;22551;52.206;4.856;2023-02-28T16:18:57;5.70;99.90
36548;DHT22;22551;52.206;4.856;2023-02-28T16:24:00;5.60;99.90
36548;DHT22;22551;52.206;4.856;2023-02-28T16:29:03;5.50;99.90
36548;DHT22;22551;52.206;4.856;2023-02-28T16:34:06;5.40;99.90
36548;DHT22;22551;52.206;4.856;2023-02-28T16:39:09;5.30;99.90
36548;DHT22;22551;52.206;4.856;2023-02-28T16:44:19;5.20;99.90
36548;DHT22;22551;52.206;4.856;2023-02-28T16:49:26;5.00;99.90
36548;DHT22;22551;52.206;4.856;2023-02-28T16:54:30;4.90;99.90
36548;DHT22;22551;52.206;4.856;2023-02-28T16:59:33;4.70;99.90
36548;DHT22;22551;52.206;4.856;2023-02-28T17:04:35;4.70;99.90
36548;DHT22;22551;52.206;4.856;2023-02-28T17:09:38;4.60;99.90
36548;DHT22;22551;52.206;4.856;2023-02-28T17:14:41;4.50;99.90
36548;DHT22;22551;52.206;4.856;2023-02-28T17:19:43;4.30;99.90
36548;DHT22;22551;52.206;4.856;2023-02-28T17:24:47;4.30;99.90
36548;DHT22;22551;52.206;4.856;2023-02-28T17:29:49;4.10;99.90
36548;DHT22;22551;52.206;4.856;2023-02-28T17:34:52;4.00;99.90
36548;DHT22;22551;52.206;4.856;2023-02-28T17:39:55;3.90;99.90
36548;DHT22;22551;52.206;4.856;2023-02-28T17:44:58;3.80;99.90
36548;DHT22;22551;52.206;4.856;2023-02-28T17:50:00;3.80;99.90
36548;DHT22;22551;52.206;4.856;2023-02-28T17:55:05;3.70;99.90
36548;DHT22;22551;52.206;4.856;2023-02-28T18:00:10;3.70;99.90
36548;DHT22;22551;52.206;4.856;2023-02-28T18:05:14;3.60;99.90
36548;DHT22;22551;52.206;4.856;2023-02-28T18:10:19;3.50;99.90
36548;DHT22;22551;52.206;4.856;2023-02-28T18:15:22;3.50;99.90
36548;DHT22;22551;52.206;4.856;2023-02-28T18:20:24;3.40;99.90
36548;DHT22;22551;52.206;4.856;2023-02-28T18:25:30;3.40;99.90
36548;DHT22;22551;52.206;4.856;2023-02-28T18:30:35;3.30;99.90
36548;DHT22;22551;52.206;4.856;2023-02-28T18:35:38;3.20;99.90
36548;DHT22;22551;52.206;4.856;2023-02-28T18:40:48;3.10;99.90
36548;DHT22;22551;52.206;4.856;2023-02-28T18:45:53;3.10;99.90
36548;DHT22;22551;52.206;4.856;2023-02-28T18:50:55;3.00;99.90
36548;DHT22;22551;52.206;4.856;2023-02-28T18:56:01;2.90;99.90
36548;DHT22;22551;52.206;4.856;2023-02-28T19:01:06;2.80;99.90
36548;DHT22;22551;52.206;4.856;2023-02-28T19:06:18;2.70;99.90
36548;DHT22;22551;52.206;4.856;2023-02-28T19:11:22;2.70;99.90
36548;DHT22;22551;52.206;4.856;2023-02-28T19:16:26;2.70;99.90
36548;DHT22;22551;52.206;4.856;2023-02-28T19:21:29;2.70;99.90
36548;DHT22;22551;52.206;4.856;2023-02-28T19:26:32;2.60;99.90
36548;DHT22;22551;52.206;4.856;2023-02-28T19:31:35;2.60;99.90
36548;DHT22;22551;52.206;4.856;2023-02-28T19:36:37;2.60;99.90
36548;DHT22;22551;52.206;4.856;2023-02-28T19:41:41;2.60;99.90
36548;DHT22;22551;52.206;4.856;2023-02-28T19:46:44;2.50;99.90
36548;DHT22;22551;52.206;4.856;2023-02-28T19:51:46;2.50;99.90
36548;DHT22;22551;52.206;4.856;2023-02-28T19:56:51;2.50;99.90
36548;DHT22;22551;52.206;4.856;2023-02-28T20:01:57;2.40;99.90
36548;DHT22;22551;52.206;4.856;2023-02-28T20:06:59;2.30;99.90
36548;DHT22;22551;52.206;4.856;2023-02-28T20:12:03;2.30;99.90
36548;DHT22;22551;52.206;4.856;2023-02-28T20:17:07;2.30;99.90
36548;DHT22;22551;52.206;4.856;2023-02-28T20:22:09;2.20;99.90
36548;DHT22;22551;52.206;4.856;2023-02-28T20:27:13;2.30;99.90
36548;DHT22;22551;52.206;4.856;2023-02-28T20:32:17;2.30;99.90
36548;DHT22;22551;52.206;4.856;2023-02-28T20:37:23;2.40;99.90
36548;DHT22;22551;52.206;4.856;2023-02-28T20:42:27;2.30;99.90
36548;DHT22;22551;52.206;4.856;2023-02-28T20:47:29;2.30;99.90
36548;DHT22;22551;52.206;4.856;2023-02-28T20:52:32;2.20;99.90
36548;DHT22;22551;52.206;4.856;2023-02-28T20:57:37;2.20;99.90
36548;DHT22;22551;52.206;4.856;2023-02-28T21:02:41;2.10;99.90
36548;DHT22;22551;52.206;4.856;2023-02-28T21:07:44;2.10;99.90
36548;DHT22;22551;52.206;4.856;2023-02-28T21:12:51;2.00;99.90
36548;DHT22;22551;52.206;4.856;2023-02-28T21:17:57;2.00;99.90
36548;DHT22;22551;52.206;4.856;2023-02-28T21:22:59;1.90;99.90
36548;DHT22;22551;52.206;4.856;2023-02-28T21:28:03;1.90;99.90
36548;DHT22;22551;52.206;4.856;2023-02-28T21:33:06;1.90;99.90
36548;DHT22;22551;52.206;4.856;2023-02-28T21:38:08;1.90;99.90
36548;DHT22;22551;52.206;4.856;2023-02-28T21:43:12;1.90;99.90
36548;DHT22;22551;52.206;4.856;2023-02-28T21:48:14;1.90;99.90
36548;DHT22;22551;52.206;4.856;2023-02-28T21:53:16;1.80;99.90
36548;DHT22;22551;52.206;4.856;2023-02-28T21:58:20;1.80;99.90
36548;DHT22;22551;52.206;4.856;2023-02-28T22:03:23;1.70;99.90
36548;DHT22;22551;52.206;4.856;2023-02-28T22:08:25;1.70;99.90
36548;DHT22;22551;52.206;4.856;2023-02-28T22:13:29;1.60;99.90
36548;DHT22;22551;52.206;4.856;2023-02-28T22:18:33;1.60;99.90
36548;DHT22;22551;52.206;4.856;2023-02-28T22:23:36;1.50;99.90
36548;DHT22;22551;52.206;4.856;2023-02-28T22:28:40;1.40;99.90
36548;DHT22;22551;52.206;4.856;2023-02-28T22:33:44;1.50;99.90
36548;DHT22;22551;52.206;4.856;2023-02-28T22:38:48;1.40;99.90
36548;DHT22;22551;52.206;4.856;2023-02-28T22:43:54;1.50;99.90
36548;DHT22;22551;52.206;4.856;2023-02-28T22:48:59;1.40;99.90
36548;DHT22;22551;52.206;4.856;2023-02-28T22:54:02;1.50;99.90
36548;DHT22;22551;52.206;4.856;2023-02-28T22:59:06;1.50;99.90
36548;DHT22;22551;52.206;4.856;2023-02-28T23:04:09;1.40;99.90
36548;DHT22;22551;52.206;4.856;2023-02-28T23:09:16;1.40;99.90
36548;DHT22;22551;52.206;4.856;2023-02-28T23:14:21;1.30;99.90
36548;DHT22;22551;52.206;4.856;2023-02-28T23:19:26;1.30;99.90
36548;DHT22;22551;52.206;4.856;2023-02-28T23:24:31;1.20;99.90
36548;DHT22;22551;52.206;4.856;2023-02-28T23:29:37;1.10;99.90
36548;DHT22;22551;52.206;4.856;2023-02-28T23:34:40;1.00;99.90
36548;DHT22;22551;52.206;4.856;2023-02-28T23:39:42;1.00;99.90
36548;DHT22;22551;52.206;4.856;2023-02-28T23:44:46;1.00;99.90
36548;DHT22;22551;52.206;4.856;2023-02-28T23:49:48;1.10;99.90
36548;DHT22;22551;52.206;4.856;2023-02-28T23:54:51;1.20;99.90
36548;DHT22;22551;52.206;4.856;2023-02-28T23:59:55;1.00;99.90
